createdAt,value
2018-02-06T00:00:08.213Z,19.58
2018-02-06T00:00:42.076Z,21.98
2018-02-06T00:01:15.965Z,19.87
2018-02-06T00:01:49.960Z,20.25
2018-02-06T00:02:23.901Z,21.65
2018-02-06T00:02:57.794Z,19.87
2018-02-06T00:03:31.694Z,20.27
2018-02-06T00:04:05.709Z,20.20
2018-02-06T00:04:39.620Z,23.25
2018-02-06T00:05:13.710Z,18.55
2018-02-06T00:05:47.594Z,21.48
2018-02-06T00:06:21.488Z,17.62
2018-02-06T00:06:55.432Z,21.52
2018-02-06T00:07:29.325Z,26.40
2018-02-06T00:08:03.220Z,27.15
2018-02-06T00:08:37.148Z,19.90
2018-02-06T00:09:11.001Z,23.05
2018-02-06T00:09:45.146Z,18.80
2018-02-06T00:10:19.387Z,17.92
2018-02-06T00:10:53.259Z,17.37
2018-02-06T00:11:27.198Z,17.83
2018-02-06T00:12:01.139Z,20.83
2018-02-06T00:12:35.022Z,18.10
2018-02-06T00:13:08.925Z,20.48
2018-02-06T00:13:43.028Z,15.45
2018-02-06T00:14:16.973Z,20.08
2018-02-06T00:14:50.872Z,15.98
2018-02-06T00:15:24.885Z,19.08
2018-02-06T00:15:58.786Z,19.67
2018-02-06T00:16:32.717Z,19.27
2018-02-06T00:17:06.612Z,22.65
2018-02-06T00:17:40.469Z,19.65
2018-02-06T00:18:14.324Z,14.82
2018-02-06T00:18:48.183Z,17.80
2018-02-06T00:19:22.107Z,17.23
2018-02-06T00:19:56.081Z,21.35
2018-02-06T00:20:30.089Z,19.17
2018-02-06T00:21:04.084Z,17.33
2018-02-06T00:21:37.979Z,22.85
2018-02-06T00:22:14.589Z,18.30
2018-02-06T00:22:50.898Z,17.17
2018-02-06T00:23:24.776Z,25.85
2018-02-06T00:23:58.650Z,20.83
2018-02-06T00:24:32.546Z,31.00
2018-02-06T00:25:06.473Z,21.30
2018-02-06T00:25:40.365Z,26.17
2018-02-06T00:26:14.245Z,30.00
2018-02-06T00:26:48.122Z,21.77
2018-02-06T00:27:22.083Z,18.08
2018-02-06T00:27:56.134Z,18.37
2018-02-06T00:28:30.014Z,22.70
2018-02-06T00:29:03.885Z,20.27
2018-02-06T00:29:37.800Z,22.08
2018-02-06T00:30:11.771Z,19.35
2018-02-06T00:30:45.696Z,15.00
2018-02-06T00:31:19.797Z,18.10
2018-02-06T00:31:53.732Z,21.45
2018-02-06T00:32:27.650Z,16.52
2018-02-06T00:33:01.553Z,19.35
2018-02-06T00:33:35.475Z,17.00
2018-02-06T00:34:09.402Z,19.85
2018-02-06T00:34:43.489Z,20.67
2018-02-06T00:35:17.361Z,15.57
2018-02-06T00:35:51.259Z,19.15
2018-02-06T00:36:25.172Z,20.98
2018-02-06T00:36:59.061Z,20.40
2018-02-06T00:37:33.042Z,20.23
2018-02-06T00:38:06.921Z,19.95
2018-02-06T00:38:40.792Z,16.02
2018-02-06T00:39:14.679Z,18.75
2018-02-06T00:39:48.582Z,20.20
2018-02-06T00:40:22.485Z,19.58
2018-02-06T00:40:56.458Z,18.23
2018-02-06T00:41:30.322Z,21.80
2018-02-06T00:42:04.200Z,15.85
2018-02-06T00:42:38.092Z,19.25
2018-02-06T00:43:11.989Z,18.35
2018-02-06T00:43:45.919Z,18.17
2018-02-06T00:44:19.788Z,23.67
2018-02-06T00:44:53.670Z,20.23
2018-02-06T00:45:27.574Z,22.20
2018-02-06T00:46:01.462Z,22.80
2018-02-06T00:46:35.370Z,22.27
2018-02-06T00:47:09.372Z,19.52
2018-02-06T00:47:43.265Z,25.02
2018-02-06T00:48:17.247Z,20.52
2018-02-06T00:48:51.188Z,20.73
2018-02-06T00:49:25.235Z,24.87
2018-02-06T00:49:59.171Z,21.20
2018-02-06T00:50:33.040Z,24.37
2018-02-06T00:51:06.921Z,26.75
2018-02-06T00:51:40.832Z,21.17
2018-02-06T00:52:14.885Z,24.23
2018-02-06T00:52:49.780Z,22.42
2018-02-06T00:53:23.690Z,22.30
2018-02-06T00:53:57.726Z,26.60
2018-02-06T00:54:31.776Z,26.90
2018-02-06T00:55:05.718Z,26.20
2018-02-06T00:55:39.717Z,26.83
2018-02-06T00:56:13.574Z,25.48
2018-02-06T00:56:47.545Z,24.65
2018-02-06T00:57:21.408Z,28.10
2018-02-06T00:57:55.427Z,24.52
2018-02-06T00:58:29.350Z,31.85
2018-02-06T00:59:03.233Z,33.17
2018-02-06T00:59:37.264Z,28.92
2018-02-06T01:00:11.177Z,23.90
2018-02-06T01:00:45.036Z,22.83
2018-02-06T01:01:19.113Z,26.40
2018-02-06T01:01:52.987Z,23.30
2018-02-06T01:02:26.965Z,21.75
2018-02-06T01:03:00.859Z,23.38
2018-02-06T01:03:34.961Z,24.35
2018-02-06T01:04:08.981Z,21.00
2018-02-06T01:04:42.865Z,31.02
2018-02-06T01:05:16.954Z,21.60
2018-02-06T01:05:50.843Z,32.22
2018-02-06T01:06:24.738Z,25.33
2018-02-06T01:06:58.688Z,28.35
2018-02-06T01:07:32.572Z,40.67
2018-02-06T01:08:06.488Z,29.35
2018-02-06T01:08:40.565Z,25.92
2018-02-06T01:09:14.444Z,24.37
2018-02-06T01:09:48.539Z,29.15
2018-02-06T01:10:22.540Z,22.70
2018-02-06T01:10:56.411Z,23.60
2018-02-06T01:11:30.435Z,21.65
2018-02-06T01:12:04.383Z,23.15
2018-02-06T01:12:38.409Z,26.95
2018-02-06T01:13:12.409Z,19.15
2018-02-06T01:13:46.316Z,22.35
2018-02-06T01:14:20.192Z,22.02
2018-02-06T01:14:54.201Z,21.48
2018-02-06T01:15:28.209Z,21.05
2018-02-06T01:16:02.190Z,22.37
2018-02-06T01:16:36.195Z,22.30
2018-02-06T01:17:10.196Z,23.60
2018-02-06T01:17:44.141Z,25.12
2018-02-06T01:18:18.034Z,24.23
2018-02-06T01:18:51.941Z,24.77
2018-02-06T01:19:25.808Z,21.85
2018-02-06T01:19:59.870Z,20.17
2018-02-06T01:20:33.863Z,20.85
2018-02-06T01:21:07.911Z,22.52
2018-02-06T01:21:42.270Z,19.08
2018-02-06T01:22:16.154Z,24.70
2018-02-06T01:22:50.008Z,19.30
2018-02-06T01:23:23.893Z,20.60
2018-02-06T01:23:57.903Z,19.40
2018-02-06T01:24:31.772Z,19.62
2018-02-06T01:25:05.642Z,22.98
2018-02-06T01:25:39.637Z,16.87
2018-02-06T01:26:13.531Z,19.15
2018-02-06T01:26:47.452Z,18.58
2018-02-06T01:27:21.376Z,20.20
2018-02-06T01:27:55.256Z,24.75
2018-02-06T01:28:29.172Z,19.73
2018-02-06T01:29:03.046Z,19.80
2018-02-06T01:29:36.947Z,20.12
2018-02-06T01:30:10.832Z,21.90
2018-02-06T01:30:44.709Z,20.00
2018-02-06T01:31:18.762Z,19.87
2018-02-06T01:31:52.829Z,20.75
2018-02-06T01:32:26.682Z,19.17
2018-02-06T01:33:00.559Z,21.90
2018-02-06T01:33:34.485Z,19.90
2018-02-06T01:34:08.369Z,17.30
2018-02-06T01:34:42.258Z,21.62
2018-02-06T01:35:16.129Z,17.02
2018-02-06T01:35:50.068Z,19.95
2018-02-06T01:36:24.090Z,22.83
2018-02-06T01:36:57.974Z,19.70
2018-02-06T01:37:32.061Z,23.52
2018-02-06T01:38:05.988Z,17.73
2018-02-06T01:38:39.869Z,18.83
2018-02-06T01:39:13.724Z,24.98
2018-02-06T01:39:47.665Z,18.87
2018-02-06T01:40:21.678Z,21.00
2018-02-06T01:40:55.549Z,21.02
2018-02-06T01:41:29.420Z,24.15
2018-02-06T01:42:03.312Z,18.48
2018-02-06T01:42:37.328Z,20.75
2018-02-06T01:43:11.190Z,17.48
2018-02-06T01:43:45.057Z,18.42
2018-02-06T01:44:18.976Z,17.87
2018-02-06T01:44:52.862Z,18.23
2018-02-06T01:45:26.774Z,17.65
2018-02-06T01:46:00.664Z,21.92
2018-02-06T01:46:34.551Z,17.80
2018-02-06T01:47:08.443Z,19.20
2018-02-06T01:47:42.317Z,20.73
2018-02-06T01:48:16.271Z,16.70
2018-02-06T01:48:50.162Z,23.38
2018-02-06T01:49:24.071Z,19.87
2018-02-06T01:50:03.843Z,18.83
2018-02-06T01:50:37.797Z,16.40
2018-02-06T01:51:11.677Z,26.02
2018-02-06T01:51:45.681Z,19.90
2018-02-06T01:52:19.545Z,19.62
2018-02-06T01:52:53.397Z,19.55
2018-02-06T01:53:27.277Z,16.73
2018-02-06T01:54:01.188Z,17.45
2018-02-06T01:54:35.059Z,18.27
2018-02-06T01:55:09.293Z,18.60
2018-02-06T01:55:43.156Z,18.95
2018-02-06T01:56:17.012Z,22.87
2018-02-06T01:56:51.079Z,18.67
2018-02-06T01:57:24.938Z,18.37
2018-02-06T01:57:58.983Z,18.67
2018-02-06T01:58:32.882Z,16.98
2018-02-06T01:59:06.776Z,19.80
2018-02-06T01:59:40.890Z,16.15
2018-02-06T02:00:14.821Z,19.70
2018-02-06T02:00:48.704Z,20.25
2018-02-06T02:01:22.572Z,23.23
2018-02-06T02:01:56.467Z,17.60
2018-02-06T02:02:30.336Z,16.95
2018-02-06T02:03:04.526Z,17.75
2018-02-06T02:03:38.392Z,18.70
2018-02-06T02:04:12.287Z,20.02
2018-02-06T02:04:46.326Z,20.58
2018-02-06T02:05:20.197Z,19.20
2018-02-06T02:05:54.066Z,17.60
2018-02-06T02:06:27.929Z,19.98
2018-02-06T02:07:01.814Z,17.77
2018-02-06T02:07:35.701Z,18.37
2018-02-06T02:08:09.702Z,22.90
2018-02-06T02:08:43.593Z,20.98
2018-02-06T02:09:17.482Z,18.02
2018-02-06T02:09:51.581Z,19.20
2018-02-06T02:10:25.444Z,17.80
2018-02-06T02:10:59.497Z,19.45
2018-02-06T02:11:33.374Z,20.42
2018-02-06T02:12:07.261Z,13.65
2018-02-06T02:12:41.145Z,17.10
2018-02-06T02:13:15.273Z,18.52
2018-02-06T02:13:49.142Z,22.25
2018-02-06T02:14:23.349Z,17.25
2018-02-06T02:14:57.565Z,18.67
2018-02-06T02:15:31.429Z,16.45
2018-02-06T02:16:05.308Z,17.23
2018-02-06T02:16:39.181Z,16.20
2018-02-06T02:17:13.144Z,22.13
2018-02-06T02:17:47.027Z,21.67
2018-02-06T02:18:20.926Z,20.08
2018-02-06T02:18:54.832Z,16.17
2018-02-06T02:19:28.778Z,20.42
2018-02-06T02:20:02.752Z,18.80
2018-02-06T02:20:36.615Z,18.45
2018-02-06T02:21:10.498Z,18.33
2018-02-06T02:21:44.363Z,21.05
2018-02-06T02:22:18.212Z,15.85
2018-02-06T02:22:52.065Z,14.23
2018-02-06T02:23:25.932Z,22.27
2018-02-06T02:23:59.793Z,19.92
2018-02-06T02:24:33.686Z,17.20
2018-02-06T02:25:07.569Z,19.80
2018-02-06T02:25:41.450Z,21.62
2018-02-06T02:26:15.353Z,20.10
2018-02-06T02:26:49.350Z,16.15
2018-02-06T02:27:23.241Z,20.60
2018-02-06T02:27:57.129Z,22.75
2018-02-06T02:28:31.133Z,18.73
2018-02-06T02:29:05.020Z,19.17
2018-02-06T02:29:38.915Z,20.33
2018-02-06T02:30:12.833Z,20.67
2018-02-06T02:30:46.693Z,17.35
2018-02-06T02:31:20.730Z,21.75
2018-02-06T02:31:54.601Z,18.92
2018-02-06T02:32:28.493Z,16.17
2018-02-06T02:33:02.348Z,17.00
2018-02-06T02:33:36.213Z,20.70
2018-02-06T02:34:10.187Z,16.27
2018-02-06T02:34:44.277Z,15.77
2018-02-06T02:35:18.147Z,16.20
2018-02-06T02:35:52.013Z,15.60
2018-02-06T02:36:26.187Z,17.62
2018-02-06T02:37:00.086Z,17.10
2018-02-06T02:37:34.189Z,17.60
2018-02-06T02:38:08.172Z,18.77
2018-02-06T02:38:42.173Z,18.48
2018-02-06T02:39:16.036Z,19.42
2018-02-06T02:39:49.958Z,15.77
2018-02-06T02:40:23.866Z,18.27
2018-02-06T02:40:58.556Z,18.75
2018-02-06T02:41:32.409Z,18.23
2018-02-06T04:38:33.303Z,20.35
2018-02-06T04:39:07.173Z,19.83
2018-02-06T04:39:41.034Z,20.85
2018-02-06T04:40:15.226Z,20.42
2018-02-06T04:40:49.103Z,19.27
2018-02-06T04:41:22.974Z,18.02
2018-02-06T04:41:56.979Z,20.75
2018-02-06T04:42:30.824Z,18.75
2018-02-06T04:43:04.695Z,22.40
2018-02-06T04:43:38.692Z,18.23
2018-02-06T04:44:12.553Z,18.92
2018-02-06T04:44:46.409Z,18.60
2018-02-06T04:45:20.357Z,21.15
2018-02-06T04:45:54.228Z,20.65
2018-02-06T04:46:28.142Z,17.48
2018-02-06T04:47:02.064Z,22.83
2018-02-06T04:47:35.937Z,17.45
2018-02-06T04:48:09.807Z,20.08
2018-02-06T04:48:43.675Z,20.77
2018-02-06T04:49:17.538Z,21.55
2018-02-06T04:49:51.416Z,17.27
2018-02-06T04:50:25.280Z,19.10
2018-02-06T04:50:59.142Z,17.25
2018-02-06T04:51:32.995Z,18.23
2018-02-06T04:52:06.906Z,20.95
2018-02-06T04:52:40.985Z,17.17
2018-02-06T04:53:14.861Z,21.73
2018-02-06T04:53:48.803Z,26.80
2018-02-06T04:54:22.670Z,22.52
2018-02-06T04:54:56.672Z,17.95
2018-02-06T04:55:30.541Z,20.75
2018-02-06T04:56:04.573Z,22.27
2018-02-06T04:56:38.436Z,18.87
2018-02-06T04:57:12.477Z,25.35
2018-02-06T04:57:46.338Z,18.33
2018-02-06T04:58:20.357Z,16.25
2018-02-06T04:58:54.212Z,24.35
2018-02-06T04:59:28.073Z,14.77
2018-02-06T05:00:01.984Z,18.90
2018-02-06T05:00:35.871Z,18.20
2018-02-06T05:01:09.746Z,19.17
2018-02-06T05:01:43.738Z,20.92
2018-02-06T05:02:17.628Z,15.68
2018-02-06T05:02:51.864Z,29.37
2018-02-06T05:03:25.732Z,19.55
2018-02-06T05:03:59.592Z,20.12
2018-02-06T05:04:33.464Z,22.27
2018-02-06T05:05:07.509Z,23.33
2018-02-06T05:05:41.417Z,18.55
2018-02-06T05:06:15.505Z,21.73
2018-02-06T05:06:49.503Z,18.90
2018-02-06T05:07:23.389Z,19.10
2018-02-06T05:07:57.492Z,21.75
2018-02-06T05:08:31.489Z,22.42
2018-02-06T05:09:05.358Z,19.85
2018-02-06T05:09:39.464Z,19.37
2018-02-06T05:10:13.336Z,24.77
2018-02-06T05:10:47.392Z,18.40
2018-02-06T05:11:21.277Z,19.83
2018-02-06T05:11:55.148Z,20.98
2018-02-06T05:12:29.268Z,22.15
2018-02-06T05:13:03.244Z,18.50
2018-02-06T05:13:37.123Z,18.33
2018-02-06T05:14:11.011Z,20.00
2018-02-06T05:14:45.170Z,21.77
2018-02-06T05:15:19.053Z,23.20
2018-02-06T05:15:52.939Z,19.70
2018-02-06T05:16:26.802Z,19.40
2018-02-06T05:17:01.021Z,19.05
2018-02-06T05:17:34.904Z,18.55
2018-02-06T05:18:08.797Z,26.25
2018-02-06T05:18:42.659Z,22.48
2018-02-06T05:19:16.513Z,23.75
2018-02-06T05:19:50.376Z,19.02
2018-02-06T05:20:24.273Z,18.52
2018-02-06T05:20:58.220Z,24.17
2018-02-06T05:21:32.072Z,17.80
2018-02-06T05:22:05.928Z,24.42
2018-02-06T05:22:39.923Z,19.62
2018-02-06T05:23:13.780Z,27.05
2018-02-06T05:23:47.647Z,25.35
2018-02-06T05:24:21.558Z,21.25
2018-02-06T05:24:55.405Z,19.65
2018-02-06T05:25:29.280Z,16.92
2018-02-06T05:26:03.162Z,19.83
2018-02-06T05:26:37.076Z,17.02
2018-02-06T05:27:10.996Z,21.40
2018-02-06T05:27:44.873Z,17.60
2018-02-06T05:28:18.765Z,17.98
2018-02-06T05:28:52.624Z,18.85
2018-02-06T05:29:26.648Z,19.58
2018-02-06T05:30:00.563Z,19.45
2018-02-06T05:30:34.429Z,21.55
2018-02-06T05:31:08.295Z,18.10
2018-02-06T05:31:42.149Z,17.20
2018-02-06T05:32:16.015Z,19.67
2018-02-06T05:32:49.872Z,18.17
2018-02-06T05:33:23.737Z,16.25
2018-02-06T05:33:57.590Z,20.42
2018-02-06T05:34:31.459Z,22.45
2018-02-06T05:35:05.350Z,17.55
2018-02-06T05:35:39.501Z,26.15
2018-02-06T05:36:13.412Z,18.12
2018-02-06T05:36:47.279Z,23.55
2018-02-06T05:37:21.136Z,19.55
2018-02-06T05:37:55.083Z,16.70
2018-02-06T05:38:28.952Z,20.27
2018-02-06T05:39:02.805Z,21.42
2018-02-06T05:39:36.672Z,20.92
2018-02-06T05:40:10.540Z,19.55
2018-02-06T05:40:44.564Z,15.32
2018-02-06T05:41:18.666Z,19.50
2018-02-06T05:41:52.751Z,16.77
2018-02-06T05:42:26.647Z,19.65
2018-02-06T05:43:00.677Z,18.87
2018-02-06T05:43:34.549Z,16.95
2018-02-06T05:44:08.434Z,19.90
2018-02-06T05:44:42.441Z,18.77
2018-02-06T05:45:16.295Z,17.45
2018-02-06T05:45:50.335Z,19.35
2018-02-06T05:46:24.342Z,16.02
2018-02-06T05:46:58.224Z,17.20
2018-02-06T05:47:32.084Z,16.83
2018-02-06T05:48:06.027Z,17.83
2018-02-06T05:48:39.897Z,20.15
2018-02-06T05:49:13.755Z,17.83
2018-02-06T05:49:48.007Z,18.15
2018-02-06T05:50:21.880Z,17.33
2018-02-06T05:50:55.795Z,20.08
2018-02-06T05:51:29.660Z,19.85
2018-02-06T05:52:03.521Z,18.52
2018-02-06T05:52:37.385Z,17.35
2018-02-06T05:53:11.269Z,19.00
2018-02-06T05:53:45.204Z,18.30
2018-02-06T05:54:19.293Z,17.20
2018-02-06T05:54:53.198Z,21.17
2018-02-06T05:55:27.055Z,19.08
2018-02-06T05:56:00.932Z,19.90
2018-02-06T05:56:35.050Z,19.40
2018-02-06T05:57:09.159Z,17.52
2018-02-06T05:57:43.041Z,18.50
2018-02-06T05:58:16.896Z,17.65
2018-02-06T05:58:50.757Z,24.40
2018-02-06T05:59:24.676Z,26.05
2018-02-06T05:59:58.623Z,20.62
2018-02-06T06:00:32.533Z,26.75
2018-02-06T06:01:06.409Z,19.25
2018-02-06T06:01:40.276Z,19.50
2018-02-06T06:02:14.141Z,18.52
2018-02-06T06:02:48.200Z,20.98
2018-02-06T06:03:22.213Z,23.83
2018-02-06T06:03:56.203Z,21.48
2018-02-06T06:04:30.090Z,19.70
2018-02-06T06:05:03.940Z,17.27
2018-02-06T06:05:37.813Z,17.35
2018-02-06T06:06:11.987Z,24.60
2018-02-06T06:06:45.982Z,27.70
2018-02-06T06:07:19.984Z,28.77
2018-02-06T06:07:53.861Z,32.53
2018-02-06T06:08:27.902Z,26.48
2018-02-06T06:09:01.892Z,41.72
2018-02-06T06:09:35.747Z,43.53
2018-02-06T06:10:09.609Z,29.52
2018-02-06T06:10:43.479Z,27.42
2018-02-06T06:11:17.343Z,20.50
2018-02-06T06:11:51.458Z,24.23
2018-02-06T06:12:25.350Z,24.42
2018-02-06T06:12:59.207Z,23.85
2018-02-06T06:13:33.260Z,24.98
2018-02-06T06:14:07.116Z,15.80
2018-02-06T06:14:40.994Z,25.17
2018-02-06T06:15:14.849Z,24.58
2018-02-06T06:15:48.710Z,13.98
2018-02-06T06:16:22.571Z,17.20
2018-02-06T06:16:56.624Z,17.30
2018-02-06T06:17:30.492Z,19.20
2018-02-06T06:18:04.356Z,18.62
2018-02-06T06:18:38.233Z,17.20
2018-02-06T06:19:12.082Z,18.67
2018-02-06T06:19:46.107Z,23.30
2018-02-06T06:20:19.998Z,42.17
2018-02-06T06:20:54.551Z,25.98
2018-02-06T06:21:28.956Z,24.67
2018-02-06T06:22:03.188Z,23.30
2018-02-06T06:22:37.052Z,20.83
2018-02-06T06:23:11.099Z,15.52
2018-02-06T06:23:45.000Z,17.42
2018-02-06T06:24:19.059Z,16.10
2018-02-06T06:24:52.920Z,14.60
2018-02-06T06:25:27.119Z,16.65
2018-02-06T06:26:01.406Z,21.27
2018-02-06T06:26:35.262Z,18.23
2018-02-06T06:27:09.119Z,16.15
2018-02-06T06:27:43.066Z,21.10
2018-02-06T06:28:16.973Z,21.92
2018-02-06T06:28:51.231Z,15.35
2018-02-06T06:29:25.216Z,17.67
2018-02-06T06:29:59.118Z,16.00
2018-02-06T06:30:33.052Z,18.23
2018-02-06T06:31:06.989Z,17.70
2018-02-06T06:31:41.544Z,18.55
2018-02-06T06:32:15.568Z,17.02
2018-02-06T06:32:49.426Z,17.87
2018-02-06T06:33:23.336Z,14.50
2018-02-06T06:33:57.220Z,16.62
2018-02-06T06:34:31.422Z,20.98
2018-02-06T06:35:05.455Z,12.48
2018-02-06T06:35:39.321Z,14.80
2018-02-06T06:36:13.500Z,15.70
2018-02-06T06:36:47.457Z,15.75
2018-02-06T06:37:21.334Z,16.62
2018-02-06T06:37:55.262Z,14.27
2018-02-06T06:38:29.138Z,16.08
2018-02-06T06:39:03.019Z,17.33
2018-02-06T06:39:36.883Z,13.38
2018-02-06T06:40:10.726Z,18.83
2018-02-06T06:40:44.589Z,14.98
2018-02-06T06:41:18.610Z,20.23
2018-02-06T06:41:52.473Z,14.40
2018-02-06T06:42:26.524Z,16.23
2018-02-06T06:43:00.391Z,16.90
2018-02-06T06:43:34.654Z,81.12
2018-02-06T06:44:08.602Z,246.82
2018-02-06T06:44:42.518Z,136.40
2018-02-06T06:45:16.397Z,121.37
2018-02-06T06:45:50.284Z,56.05
2018-02-06T06:46:24.137Z,41.15
2018-02-06T06:46:58.042Z,34.78
2018-02-06T06:47:31.909Z,24.87
2018-02-06T06:48:05.894Z,22.52
2018-02-06T06:48:39.779Z,17.25
2018-02-06T06:49:13.806Z,15.77
2018-02-06T06:49:47.709Z,20.40
2018-02-06T06:50:21.673Z,14.90
2018-02-06T06:50:55.589Z,12.80
2018-02-06T06:51:29.448Z,13.00
2018-02-06T06:52:03.320Z,16.00
2018-02-06T06:52:37.208Z,14.82
2018-02-06T06:53:11.065Z,12.30
2018-02-06T06:53:44.957Z,14.32
2018-02-06T06:54:18.861Z,15.90
2018-02-06T06:54:52.729Z,11.60
2018-02-06T06:55:26.581Z,17.15
2018-02-06T06:56:00.500Z,13.00
2018-02-06T06:56:34.377Z,16.00
2018-02-06T06:57:08.262Z,16.52
2018-02-06T06:57:42.112Z,14.50
2018-02-06T06:58:16.013Z,15.63
2018-02-06T06:58:49.904Z,23.60
2018-02-06T06:59:25.291Z,23.83
2018-02-06T06:59:59.463Z,18.60
2018-02-06T07:00:33.330Z,21.35
2018-02-06T07:01:07.205Z,14.95
2018-02-06T07:01:41.206Z,13.45
2018-02-06T07:02:16.821Z,15.45
2018-02-06T07:02:50.830Z,16.27
2018-02-06T07:03:24.700Z,12.10
2018-02-06T07:03:58.682Z,17.83
2018-02-06T07:04:32.564Z,16.70
2018-02-06T07:05:06.434Z,19.90
2018-02-06T07:05:40.326Z,21.02
2018-02-06T07:06:14.378Z,16.87
2018-02-06T07:06:48.259Z,16.20
2018-02-06T07:07:22.210Z,20.73
2018-02-06T07:07:56.109Z,15.75
2018-02-06T07:08:29.975Z,27.98
2018-02-06T07:09:03.846Z,19.27
2018-02-06T07:09:37.741Z,20.55
2018-02-06T07:10:11.603Z,20.62
2018-02-06T07:10:45.576Z,21.60
2018-02-06T07:11:19.416Z,18.50
2018-02-06T07:11:53.361Z,23.23
2018-02-06T07:12:27.858Z,22.58
2018-02-06T07:13:01.726Z,18.12
2018-02-06T07:13:36.892Z,25.37
2018-02-06T07:14:10.841Z,24.90
2018-02-06T07:14:44.741Z,23.73
2018-02-06T07:15:18.887Z,24.73
2018-02-06T07:15:52.886Z,22.55
2018-02-06T07:16:26.743Z,23.67
2018-02-06T07:17:00.637Z,19.25
2018-02-06T07:17:34.518Z,27.15
2018-02-06T07:18:08.401Z,22.20
2018-02-06T07:18:42.321Z,23.58
2018-02-06T07:19:16.278Z,27.05
2018-02-06T07:19:50.266Z,17.08
2018-02-06T07:20:26.063Z,26.25
2018-02-06T07:20:59.931Z,25.48
2018-02-06T07:21:33.821Z,25.50
2018-02-06T07:22:07.689Z,23.83
2018-02-06T07:22:41.858Z,23.05
2018-02-06T07:23:16.089Z,19.48
2018-02-06T07:23:49.987Z,18.48
2018-02-06T07:24:23.985Z,20.45
2018-02-06T07:24:57.862Z,16.08
2018-02-06T07:25:32.501Z,18.80
2018-02-06T07:26:06.520Z,20.05
2018-02-06T07:26:40.386Z,22.92
2018-02-06T07:27:14.262Z,22.37
2018-02-06T07:27:48.129Z,17.23
2018-02-06T07:28:21.996Z,15.77
2018-02-06T07:28:55.985Z,19.77
2018-02-06T07:29:29.842Z,18.92
2018-02-06T07:30:03.743Z,15.35
2018-02-06T07:30:37.652Z,18.80
2018-02-06T07:31:11.508Z,25.52
2018-02-06T07:31:45.641Z,20.65
2018-02-06T07:32:19.525Z,16.15
2018-02-06T07:32:53.375Z,16.73
2018-02-06T07:33:27.243Z,15.93
2018-02-06T07:34:01.097Z,17.77
2018-02-06T07:34:34.950Z,16.37
2018-02-06T07:35:09.131Z,18.40
2018-02-06T07:35:42.992Z,16.73
2018-02-06T07:36:16.882Z,17.83
2018-02-06T07:36:50.817Z,20.88
2018-02-06T07:37:24.675Z,17.80
2018-02-06T07:37:58.550Z,20.45
2018-02-06T07:38:32.408Z,21.60
2018-02-06T07:39:06.502Z,18.23
2018-02-06T07:39:40.697Z,17.23
2018-02-06T07:40:14.576Z,21.23
2018-02-06T07:40:48.497Z,15.77
2018-02-06T07:41:22.693Z,17.25
2018-02-06T07:41:56.553Z,18.92
2018-02-06T07:42:30.426Z,18.85
2018-02-06T07:43:04.565Z,21.12
2018-02-06T07:43:38.577Z,19.58
2018-02-06T07:44:12.445Z,19.23
2018-02-06T07:44:46.384Z,20.90
2018-02-06T07:45:20.510Z,17.70
2018-02-06T07:45:54.457Z,18.92
2018-02-06T07:46:28.317Z,21.08
2018-02-06T07:47:02.172Z,20.90
2018-02-06T07:47:36.269Z,20.33
2018-02-06T07:48:10.195Z,19.05
2018-02-06T07:48:44.119Z,18.05
2018-02-06T07:49:18.036Z,17.70
2018-02-06T07:49:52.061Z,18.17
2018-02-06T07:50:25.948Z,17.52
2018-02-06T07:50:59.845Z,15.40
2018-02-06T07:51:33.878Z,20.80
2018-02-06T07:52:07.774Z,32.28
2018-02-06T07:52:41.647Z,20.60
2018-02-06T07:53:15.572Z,20.55
2018-02-06T07:53:49.598Z,20.83
2018-02-06T07:54:23.453Z,23.25
2018-02-06T07:54:57.350Z,17.42
2018-02-06T07:55:31.336Z,24.50
2018-02-06T07:56:05.325Z,16.67
2018-02-06T07:56:39.253Z,19.65
2018-02-06T07:57:13.177Z,20.65
2018-02-06T07:57:47.084Z,19.70
2018-02-06T07:58:21.089Z,18.35
2018-02-06T07:58:54.965Z,20.65
2018-02-06T07:59:28.809Z,21.02
2018-02-06T08:00:02.733Z,17.73
2018-02-06T08:00:36.893Z,18.12
2018-02-06T08:01:10.763Z,22.20
2018-02-06T08:01:44.648Z,16.58
2018-02-06T08:02:18.582Z,16.75
2018-02-06T08:02:52.455Z,16.15
2018-02-06T08:03:26.332Z,19.25
2018-02-06T08:04:00.343Z,18.85
2018-02-06T08:04:34.237Z,19.58
2018-02-06T08:05:08.109Z,19.08
2018-02-06T08:05:42.049Z,22.37
2018-02-06T08:06:16.217Z,22.45
2018-02-06T08:06:50.126Z,21.77
2018-02-06T08:07:24.013Z,21.98
2018-02-06T08:07:57.906Z,18.00
2018-02-06T08:08:31.919Z,22.50
2018-02-06T08:09:05.823Z,19.10
2018-02-06T08:09:39.701Z,18.33
2018-02-06T08:10:13.690Z,16.50
2018-02-06T08:10:47.581Z,19.37
2018-02-06T08:11:21.482Z,15.63
2018-02-06T08:11:55.481Z,15.90
2018-02-06T08:12:29.328Z,16.17
2018-02-06T08:13:03.215Z,19.15
2018-02-06T08:13:37.371Z,16.42
2018-02-06T08:14:11.220Z,15.73
2018-02-06T08:14:45.264Z,16.52
2018-02-06T08:15:19.113Z,15.15
2018-02-06T08:15:52.986Z,17.62
2018-02-06T08:16:26.848Z,16.02
2018-02-06T08:17:00.714Z,18.27
2018-02-06T08:17:34.736Z,15.38
2018-02-06T08:18:08.607Z,15.63
2018-02-06T08:18:42.642Z,13.82
2018-02-06T08:19:16.500Z,13.65
2018-02-06T08:19:50.366Z,19.95
2018-02-06T08:20:24.420Z,16.40
2018-02-06T08:20:58.799Z,20.00
2018-02-06T08:21:32.931Z,29.75
2018-02-06T08:22:06.796Z,22.62
2018-02-06T08:22:40.731Z,25.35
2018-02-06T08:23:14.707Z,18.42
2018-02-06T08:23:48.671Z,25.65
2018-02-06T08:24:22.634Z,13.48
2018-02-06T08:24:56.808Z,25.65
2018-02-06T08:25:30.680Z,19.73
2018-02-06T08:26:04.587Z,18.77
2018-02-06T08:26:38.462Z,17.42
2018-02-06T08:27:12.309Z,15.45
2018-02-06T08:27:46.352Z,21.42
2018-02-06T08:28:20.225Z,17.45
2018-02-06T08:28:54.142Z,14.40
2018-02-06T08:29:28.009Z,14.80
2018-02-06T08:30:01.941Z,16.08
2018-02-06T08:30:36.093Z,21.12
2018-02-06T08:31:09.986Z,15.10
2018-02-06T08:31:43.917Z,15.95
2018-02-06T08:32:18.081Z,14.70
2018-02-06T08:32:51.984Z,15.77
2018-02-06T08:33:25.870Z,19.87
2018-02-06T08:33:59.760Z,20.52
2018-02-06T08:34:33.654Z,14.85
2018-02-06T08:35:07.516Z,17.37
2018-02-06T08:35:41.566Z,18.60
2018-02-06T08:36:15.447Z,21.55
2018-02-06T08:36:49.304Z,16.62
2018-02-06T08:37:23.185Z,18.33
2018-02-06T08:37:57.065Z,21.00
2018-02-06T08:38:30.936Z,15.90
2018-02-06T08:39:04.819Z,21.70
2018-02-06T08:39:38.736Z,18.62
2018-02-06T08:40:12.613Z,18.65
2018-02-06T08:40:46.501Z,19.35
2018-02-06T08:41:20.397Z,22.92
2018-02-06T08:41:54.260Z,19.00
2018-02-06T08:42:28.135Z,18.73
2018-02-06T08:43:02.078Z,17.00
2018-02-06T08:43:35.959Z,18.55
2018-02-06T08:44:09.847Z,17.90
2018-02-06T08:44:43.713Z,17.27
2018-02-06T08:45:17.568Z,16.70
2018-02-06T08:45:51.449Z,19.73
2018-02-06T08:46:25.365Z,19.05
2018-02-06T08:46:59.226Z,21.55
2018-02-06T08:47:33.122Z,26.05
2018-02-06T08:48:07.141Z,15.27
2018-02-06T08:48:41.068Z,21.02
2018-02-06T08:49:15.127Z,21.92
2018-02-06T08:49:49.040Z,22.27
2018-02-06T08:50:23.009Z,22.08
2018-02-06T08:50:57.132Z,19.87
2018-02-06T08:51:31.078Z,20.98
2018-02-06T08:52:05.018Z,17.95
2018-02-06T08:52:38.977Z,16.58
2018-02-06T08:53:12.855Z,20.05
2018-02-06T08:53:46.997Z,19.77
2018-02-06T08:54:21.071Z,16.40
2018-02-06T08:54:54.997Z,19.25
2018-02-06T08:55:28.922Z,21.65
2018-02-06T08:56:02.927Z,22.90
2018-02-06T08:56:37.091Z,17.90
2018-02-06T08:57:11.024Z,23.83
2018-02-06T08:57:45.078Z,18.90
2018-02-06T08:58:19.393Z,25.58
2018-02-06T08:58:53.290Z,20.58
2018-02-06T08:59:27.333Z,16.42
2018-02-06T09:00:02.238Z,16.75
2018-02-06T09:00:36.221Z,20.02
2018-02-06T09:01:10.497Z,18.60
2018-02-06T09:01:44.457Z,20.33
2018-02-06T09:02:18.328Z,20.48
2018-02-06T09:02:52.344Z,16.67
2018-02-06T09:03:27.250Z,15.02
2018-02-06T09:04:01.197Z,24.55
2018-02-06T09:04:35.078Z,16.12
2018-02-06T09:05:08.979Z,17.12
2018-02-06T09:05:42.919Z,15.82
2018-02-06T09:06:16.842Z,22.85
2018-02-06T09:06:50.725Z,27.00
2018-02-06T09:07:24.616Z,24.15
2018-02-06T09:07:59.512Z,17.73
2018-02-06T09:08:33.543Z,21.67
2018-02-06T09:09:08.431Z,17.40
2018-02-06T09:09:42.545Z,14.10
2018-02-06T09:10:16.528Z,20.73
2018-02-06T09:10:50.499Z,20.98
2018-02-06T09:11:24.380Z,18.92
2018-02-06T09:11:58.274Z,20.17
2018-02-06T09:12:32.853Z,18.00
2018-02-06T09:13:06.838Z,18.08
2018-02-06T09:13:41.689Z,22.37